Time;durP1;ratioP1;P1;durP2;ratioP2;P2;SDS_P1;SDS_P2;PMS_P1;PMS_P2;Temp;Humidity;BMP_temperature;BMP_pressure;BME280_temperature;BME280_humidity;BME280_pressure;Samples;Min_cycle;Max_cycle;Signal;HPM_P1;HPM_P2
2021/11/04 00:01:36;;;;;;;;;;;;;;;;;;5107041;28;19910;-51
2021/11/04 00:04:03;;;;;;;;;;;;;;;;;;5106905;28;20381;-52
2021/11/04 00:06:29;;;;;;;;;;;;;;;;;;5106374;28;19907;-51
2021/11/04 00:08:55;;;;;;;;;;;;;;;;;;5106604;28;20401;-51
2021/11/04 00:11:22;;;;;;;;;;;;;;;;;;5106780;28;19912;-51
2021/11/04 00:13:48;;;;;;;;;;;;;;;;;;5106204;28;20010;-50
2021/11/04 00:16:15;;;;;;;;;;;;;;;;;;5105391;28;19986;-51
2021/11/04 00:18:42;;;;;;;;;;;;;;;;;;5107040;28;19911;-48
2021/11/04 00:21:07;;;;;;;;;;;;;;;;;;5106602;28;20374;-48
2021/11/04 00:23:33;;;;;;;;;;;;;;;;;;5106391;28;19911;-52
2021/11/04 00:25:59;;;;;;;;;;;;;;;;;;5105768;28;19904;-47
2021/11/04 00:28:25;;;;;;;;;;;;;;;;;;5105940;28;19956;-51
2021/11/04 00:30:51;;;;;;;;;;;;;;;;;;5106067;28;19907;-49
2021/11/04 00:33:17;;;;;;;;;;;;;;;;;;5105909;28;19923;-50
2021/11/04 00:35:43;;;;;;;;;;;;;;;;;;5105857;28;19948;-49
2021/11/04 00:38:09;;;;;;;;;;;;;;;;;;5106505;28;19908;-51
2021/11/04 00:40:36;;;;;;;;;;;;;;;;;;5093554;28;19935;-48
2021/11/04 00:43:02;;;;;;;;;;;;;;;;;;5085372;28;19943;-49
2021/11/04 00:45:28;;;;;;;;;;;;;;;;;;5074946;28;19958;-51
2021/11/04 00:47:55;;;;;;;;;;;;;;;;;;5065200;28;19943;-51
2021/11/04 00:50:21;;;;;;;;;;;;;;;;;;5065097;28;19904;-51
2021/11/04 00:52:47;;;;;;;;;;;;;;;;;;5065389;28;20298;-48
2021/11/04 00:55:13;;;;;;;;;;;;;;;;;;5064661;28;19909;-52
2021/11/04 00:57:39;;;;;;;;;;;;;;;;;;5065485;28;19915;-51
2021/11/04 01:00:05;;;;;;;;;;;;;;;;;;5065096;28;19911;-51
2021/11/04 01:02:31;;;;;;;;;;;;;;;;;;5065184;28;19909;-51
2021/11/04 01:04:57;;;;;;;;;;;;;;;;;;5065033;28;19908;-48
2021/11/04 01:07:23;;;;;;;;;;;;;;;;;;5066285;28;19904;-50
2021/11/04 01:09:49;;;;;;;;;;;;;;;;;;5065755;28;19916;-50
2021/11/04 01:12:15;;;;;;;;;;;;;;;;;;5065501;28;19916;-51
2021/11/04 01:14:42;;;;;;;;;;;;;;;;;;5065133;28;20333;-51
2021/11/04 01:17:08;;;;;;;;;;;;;;;;;;5064175;28;19914;-49
2021/11/04 01:19:35;;;;;;;;;;;;;;;;;;5065122;28;19904;-49
2021/11/04 01:22:00;;;;;;;;;;;;;;;;;;5064989;28;19912;-51
2021/11/04 01:24:27;;;;;;;;;;;;;;;;;;5064395;28;19944;-48
2021/11/04 01:26:53;;;;;;;;;;;;;;;;;;5064957;28;19904;-47
2021/11/04 01:29:19;;;;;;;;;;;;;;;;;;5068777;28;19983;-50
2021/11/04 01:31:46;;;;;;;;;;;;;;;;;;5068929;28;19912;-50
2021/11/04 01:34:12;;;;;;;;;;;;;;;;;;5068605;28;19912;-52
2021/11/04 01:36:38;;;;;;;;;;;;;;;;;;5068983;28;19904;-48
2021/11/04 01:39:04;;;;;;;;;;;;;;;;;;5068398;28;19927;-47
2021/11/04 01:41:30;;;;;;;;;;;;;;;;;;5069308;28;20015;-48
2021/11/04 01:43:56;;;;;;;;;;;;;;;;;;5068442;28;20250;-50
2021/11/04 01:46:23;;;;;;;;;;;;;;;;;;5069690;28;20427;-51
2021/11/04 01:48:49;;;;;;;;;;;;;;;;;;5069205;28;20038;-50
2021/11/04 01:51:15;;;;;;;;;;;;;;;;;;5068462;28;19969;-47
2021/11/04 01:53:41;;;;;;;;;;;;;;;;;;5068776;28;19933;-52
2021/11/04 01:56:07;;;;;;;;;;;;;;;;;;5068173;28;19971;-48
2021/11/04 01:58:34;;;;;;;;;;;;;;;;;;5068788;28;20367;-48
2021/11/04 02:01:00;;;;;;;;;;;;;;;;;;5068440;28;19904;-48
2021/11/04 02:03:26;;;;;;;;;;;;;;;;;;5068441;28;19900;-51
2021/11/04 02:05:53;;;;;;;;;;;;;;;;;;5069398;28;19904;-49
2021/11/04 02:08:20;;;;;;;;;;;;;;;;;;5069046;28;19900;-52
2021/11/04 02:10:46;;;;;;;;;;;;;;;;;;5068506;28;20350;-49
2021/11/04 02:13:13;;;;;;;;;;;;;;;;;;5067583;28;19967;-51
2021/11/04 02:15:40;;;;;;;;;;;;;;;;;;5068237;28;20427;-51
2021/11/04 02:18:08;;;;;;;;;;;;;;;;;;5067496;28;19908;-51
2021/11/04 02:20:33;;;;;;;;;;;;;;;;;;5068490;28;19904;-52
2021/11/04 02:22:59;;;;;;;;;;;;;;;;;;5067955;28;20299;-49
2021/11/04 02:25:26;;;;;;;;;;;;;;;;;;5068040;28;19995;-51
2021/11/04 02:27:53;;;;;;;;;;;;;;;;;;5068737;28;19911;-49
2021/11/04 02:30:19;;;;;;;;;;;;;;;;;;5068417;28;20440;-49
2021/11/04 02:32:46;;;;;;;;;;;;;;;;;;5067652;28;19908;-52
2021/11/04 02:35:13;;;;;;;;;;;;;;;;;;5067278;28;19927;-50
2021/11/04 02:37:39;;;;;;;;;;;;;;;;;;5070050;28;19939;-50
2021/11/04 02:40:05;;;;;;;;;;;;;;;;;;5087506;28;19973;-51
2021/11/04 02:42:31;;;;;;;;;;;;;;;;;;5083134;28;19905;-50
2021/11/04 02:44:57;;;;;;;;;;;;;;;;;;5067270;28;19912;-51
2021/11/04 02:47:22;;;;;;;;;;;;;;;;;;5068001;28;19909;-51
2021/11/04 02:49:48;;;;;;;;;;;;;;;;;;5067291;28;19904;-50
2021/11/04 02:52:14;;;;;;;;;;;;;;;;;;5067134;28;20307;-48
2021/11/04 02:54:40;;;;;;;;;;;;;;;;;;5067670;28;19904;-51
2021/11/04 02:57:06;;;;;;;;;;;;;;;;;;5067963;28;19912;-51
2021/11/04 02:59:32;;;;;;;;;;;;;;;;;;5067001;28;20443;-52
2021/11/04 03:01:58;;;;;;;;;;;;;;;;;;5067306;28;20011;-52
2021/11/04 03:04:25;;;;;;;;;;;;;;;;;;5067155;28;20375;-49
2021/11/04 03:06:52;;;;;;;;;;;;;;;;;;5067821;28;19906;-51
2021/11/04 03:09:18;;;;;;;;;;;;;;;;;;5067135;28;19995;-48
2021/11/04 03:11:44;;;;;;;;;;;;;;;;;;5067588;28;20003;-50
2021/11/04 03:14:09;;;;;;;;;;;;;;;;;;5066765;28;19904;-48
2021/11/04 03:16:36;;;;;;;;;;;;;;;;;;5068231;28;20322;-51
2021/11/04 03:19:03;;;;;;;;;;;;;;;;;;5067503;28;19987;-49
2021/11/04 03:21:32;;;;;;;;;;;;;;;;;;5067226;28;20350;-50
2021/11/04 03:23:58;;;;;;;;;;;;;;;;;;5067246;28;19961;-49
2021/11/04 03:26:25;;;;;;;;;;;;;;;;;;5066968;28;19904;-48
2021/11/04 03:28:51;;;;;;;;;;;;;;;;;;5066750;28;19904;-49
2021/11/04 03:31:17;;;;;;;;;;;;;;;;;;5067040;28;19908;-51
2021/11/04 03:33:44;;;;;;;;;;;;;;;;;;5066898;28;19908;-50
2021/11/04 03:36:10;;;;;;;;;;;;;;;;;;5066830;28;19904;-51
2021/11/04 03:38:36;;;;;;;;;;;;;;;;;;5067079;28;20272;-49
2021/11/04 03:41:02;;;;;;;;;;;;;;;;;;5067768;28;19993;-51
2021/11/04 03:43:29;;;;;;;;;;;;;;;;;;5066721;28;19986;-48
2021/11/04 03:45:55;;;;;;;;;;;;;;;;;;5066598;28;19904;-49
2021/11/04 03:48:21;;;;;;;;;;;;;;;;;;5065788;28;19911;-48
2021/11/04 03:50:47;;;;;;;;;;;;;;;;;;5066768;28;19908;-51
2021/11/04 03:53:14;;;;;;;;;;;;;;;;;;5066374;28;20341;-50
2021/11/04 03:55:39;;;;;;;;;;;;;;;;;;5066935;28;20019;-49
2021/11/04 03:58:06;;;;;;;;;;;;;;;;;;5066999;28;20426;-51
2021/11/04 04:00:33;;;;;;;;;;;;;;;;;;5067239;28;20375;-49
2021/11/04 04:02:59;;;;;;;;;;;;;;;;;;5065803;28;20386;-48
2021/11/04 04:05:25;;;;;;;;;;;;;;;;;;5066604;28;20166;-50
2021/11/04 04:07:51;;;;;;;;;;;;;;;;;;5066557;28;19999;-49
2021/11/04 04:10:18;;;;;;;;;;;;;;;;;;5066017;28;20417;-48
2021/11/04 04:12:44;;;;;;;;;;;;;;;;;;5066413;28;20296;-51
2021/11/04 04:15:10;;;;;;;;;;;;;;;;;;5065312;28;19966;-51
2021/11/04 04:17:36;;;;;;;;;;;;;;;;;;5085304;28;19995;-47
2021/11/04 04:20:03;;;;;;;;;;;;;;;;;;5087181;28;20387;-50
2021/11/04 04:22:29;;;;;;;;;;;;;;;;;;5086249;28;19904;-48
2021/11/04 04:24:56;;;;;;;;;;;;;;;;;;5086381;28;20422;-50
2021/11/04 04:27:22;;;;;;;;;;;;;;;;;;5085939;28;19991;-49
2021/11/04 04:29:49;;;;;;;;;;;;;;;;;;5085758;28;19995;-48
2021/11/04 04:32:15;;;;;;;;;;;;;;;;;;5085626;28;19930;-51
2021/11/04 04:34:41;;;;;;;;;;;;;;;;;;5085932;28;19904;-52
2021/11/04 04:37:08;;;;;;;;;;;;;;;;;;5086224;28;19954;-51
2021/11/04 04:39:34;;;;;;;;;;;;;;;;;;5086187;28;20463;-48
2021/11/04 04:42:00;;;;;;;;;;;;;;;;;;5086263;28;19908;-50
2021/11/04 04:44:26;;;;;;;;;;;;;;;;;;5065331;28;20355;-49
2021/11/04 04:46:52;;;;;;;;;;;;;;;;;;5065786;28;20375;-51
2021/11/04 04:49:18;;;;;;;;;;;;;;;;;;5064540;28;19904;-51
2021/11/04 04:51:43;;;;;;;;;;;;;;;;;;5065618;28;19904;-52
2021/11/04 04:54:09;;;;;;;;;;;;;;;;;;5065675;28;19904;-51
2021/11/04 04:56:37;;;;;;;;;;;;;;;;;;5066132;28;19912;-51
2021/11/04 04:59:03;;;;;;;;;;;;;;;;;;5066069;28;19916;-49
2021/11/04 05:01:29;;;;;;;;;;;;;;;;;;5065272;28;19911;-51
2021/11/04 05:03:55;;;;;;;;;;;;;;;;;;5064611;28;20375;-50
2021/11/04 05:06:22;;;;;;;;;;;;;;;;;;5065125;28;20458;-48
2021/11/04 05:08:49;;;;;;;;;;;;;;;;;;5065497;28;19912;-51
2021/11/04 05:11:15;;;;;;;;;;;;;;;;;;5065444;28;19912;-50
2021/11/04 05:13:41;;;;;;;;;;;;;;;;;;5065025;28;19919;-52
2021/11/04 05:16:07;;;;;;;;;;;;;;;;;;5065421;28;19919;-49
2021/11/04 05:18:33;;;;;;;;;;;;;;;;;;5065785;28;20387;-49
2021/11/04 05:21:00;;;;;;;;;;;;;;;;;;5065539;28;19923;-48
2021/11/04 05:23:26;;;;;;;;;;;;;;;;;;5064876;28;19900;-50
2021/11/04 05:25:52;;;;;;;;;;;;;;;;;;5065057;28;19905;-50
2021/11/04 05:28:19;;;;;;;;;;;;;;;;;;5064714;28;19900;-48
2021/11/04 05:30:46;;;;;;;;;;;;;;;;;;5065465;28;19922;-49
2021/11/04 05:33:12;;;;;;;;;;;;;;;;;;5064682;28;19918;-50
2021/11/04 05:35:38;;;;;;;;;;;;;;;;;;5065540;28;19904;-48
2021/11/04 05:38:04;;;;;;;;;;;;;;;;;;5065868;28;19908;-47
2021/11/04 05:40:29;;;;;;;;;;;;;;;;;;5064687;28;19909;-51
2021/11/04 05:42:56;;;;;;;;;;;;;;;;;;5065288;28;19995;-49
2021/11/04 05:45:22;;;;;;;;;;;;;;;;;;5064868;28;19905;-50
2021/11/04 05:47:49;;;;;;;;;;;;;;;;;;5064859;28;19904;-48
2021/11/04 05:50:15;;;;;;;;;;;;;;;;;;5063833;28;19904;-47
2021/11/04 05:52:42;;;;;;;;;;;;;;;;;;5065046;28;19912;-47
2021/11/04 05:55:09;;;;;;;;;;;;;;;;;;5064600;28;19911;-48
2021/11/04 05:57:36;;;;;;;;;;;;;;;;;;5065550;28;19978;-48
2021/11/04 06:00:02;;;;;;;;;;;;;;;;;;5065342;28;20376;-47
2021/11/04 06:02:28;;;;;;;;;;;;;;;;;;5064509;28;19904;-50
2021/11/04 06:04:54;;;;;;;;;;;;;;;;;;5064666;28;19904;-50
2021/11/04 06:07:20;;;;;;;;;;;;;;;;;;5064734;28;19930;-50
2021/11/04 06:09:46;;;;;;;;;;;;;;;;;;5063267;28;19912;-50
2021/11/04 06:12:13;;;;;;;;;;;;;;;;;;5064877;28;20003;-52
2021/11/04 06:14:39;;;;;;;;;;;;;;;;;;5066241;28;19995;-48
2021/11/04 06:17:05;;;;;;;;;;;;;;;;;;5068866;28;20351;-47
2021/11/04 06:19:32;;;;;;;;;;;;;;;;;;5068135;28;19904;-52
2021/11/04 06:21:57;;;;;;;;;;;;;;;;;;5068594;28;19943;-51
2021/11/04 06:24:23;;;;;;;;;;;;;;;;;;5067678;28;20420;-52
2021/11/04 06:26:49;;;;;;;;;;;;;;;;;;5068565;28;19913;-49
2021/11/04 06:29:15;;;;;;;;;;;;;;;;;;5068090;28;20591;-49
2021/11/04 06:31:41;;;;;;;;;;;;;;;;;;5066352;28;19935;-51
2021/11/04 06:34:07;;;;;;;;;;;;;;;;;;5068274;28;19908;-51
2021/11/04 06:36:33;;;;;;;;;;;;;;;;;;5068188;28;19948;-51
2021/11/04 06:39:00;;;;;;;;;;;;;;;;;;5067895;28;19950;-51
2021/11/04 06:41:26;;;;;;;;;;;;;;;;;;5068096;28;19908;-51
2021/11/04 06:43:53;;;;;;;;;;;;;;;;;;5068129;28;19909;-49
2021/11/04 06:46:19;;;;;;;;;;;;;;;;;;5067419;28;19905;-48
2021/11/04 06:48:45;;;;;;;;;;;;;;;;;;5081083;28;19978;-50
2021/11/04 06:51:11;;;;;;;;;;;;;;;;;;5069728;28;20257;-52
2021/11/04 06:53:38;;;;;;;;;;;;;;;;;;5076127;28;19912;-50
2021/11/04 06:56:05;;;;;;;;;;;;;;;;;;5106543;28;20014;-50
2021/11/04 06:58:32;;;;;;;;;;;;;;;;;;5089871;28;20003;-51
2021/11/04 07:00:58;;;;;;;;;;;;;;;;;;5089423;28;19991;-50
2021/11/04 07:03:26;;;;;;;;;;;;;;;;;;5087677;28;19908;-51
2021/11/04 07:06:11;;;;;;;;;;;;;;;;;;5081186;28;19905;-50
2021/11/04 07:08:41;;;;;;;;;;;;;;;;;;5079838;28;20084;-53
2021/11/04 07:11:07;;;;;;;;;;;;;;;;;;5074074;28;20493;-50
2021/11/04 07:13:33;;;;;;;;;;;;;;;;;;5077191;28;20015;-51
2021/11/04 07:15:59;;;;;;;;;;;;;;;;;;5068793;28;19995;-51
2021/11/04 07:18:25;;;;;;;;;;;;;;;;;;5079515;28;19934;-51
2021/11/04 07:20:51;;;;;;;;;;;;;;;;;;5087345;28;19999;-50
2021/11/04 07:23:17;;;;;;;;;;;;;;;;;;5088312;28;19912;-52
2021/11/04 07:25:42;;;;;;;;;;;;;;;;;;5084811;28;20043;-52
2021/11/04 07:28:08;;;;;;;;;;;;;;;;;;5075923;28;19908;-51
2021/11/04 07:30:35;;;;;;;;;;;;;;;;;;5086197;28;19914;-51
2021/11/04 07:33:00;;;;;;;;;;;;;;;;;;5068668;28;19915;-51
2021/11/04 07:35:27;;;;;;;;;;;;;;;;;;5068893;28;19916;-48
2021/11/04 07:37:53;;;;;;;;;;;;;;;;;;5087051;28;19911;-51
2021/11/04 07:40:19;;;;;;;;;;;;;;;;;;5088867;28;20279;-50
2021/11/04 07:42:44;;;;;;;;;;;;;;;;;;5074855;28;19916;-51
2021/11/04 07:45:10;;;;;;;;;;;;;;;;;;5070835;28;19923;-51
2021/11/04 07:47:36;;;;;;;;;;;;;;;;;;5077130;28;19962;-52
2021/11/04 07:50:02;;;;;;;;;;;;;;;;;;5086605;28;19908;-51
2021/11/04 07:52:28;;;;;;;;;;;;;;;;;;5068991;28;19909;-49
2021/11/04 07:54:54;;;;;;;;;;;;;;;;;;5068874;28;19909;-51
2021/11/04 07:57:20;;;;;;;;;;;;;;;;;;5071659;28;19907;-51
2021/11/04 07:59:46;;;;;;;;;;;;;;;;;;5069755;28;19912;-51
2021/11/04 08:02:12;;;;;;;;;;;;;;;;;;5077319;28;19904;-48
2021/11/04 08:04:38;;;;;;;;;;;;;;;;;;5080742;28;19908;-50
2021/11/04 08:07:04;;;;;;;;;;;;;;;;;;5082610;28;19915;-52
2021/11/04 08:09:30;;;;;;;;;;;;;;;;;;5080387;28;19996;-52
2021/11/04 08:11:56;;;;;;;;;;;;;;;;;;5076565;28;19922;-51
2021/11/04 08:14:22;;;;;;;;;;;;;;;;;;5077115;28;19930;-52
2021/11/04 08:16:49;;;;;;;;;;;;;;;;;;5072655;28;20548;-51
2021/11/04 08:19:15;;;;;;;;;;;;;;;;;;5087515;28;20325;-51
2021/11/04 08:21:41;;;;;;;;;;;;;;;;;;5080282;28;19908;-51
2021/11/04 08:24:07;;;;;;;;;;;;;;;;;;5079365;28;19999;-52
2021/11/04 08:26:33;;;;;;;;;;;;;;;;;;5068620;28;19994;-52
2021/11/04 08:29:01;;;;;;;;;;;;;;;;;;5069207;28;19908;-50
2021/11/04 08:31:27;;;;;;;;;;;;;;;;;;5079253;28;20314;-50
2021/11/04 08:33:53;;;;;;;;;;;;;;;;;;5087354;28;19915;-51
2021/11/04 08:36:19;;;;;;;;;;;;;;;;;;5081651;28;19919;-50
2021/11/04 08:38:45;;;;;;;;;;;;;;;;;;5074164;28;19915;-51
2021/11/04 08:41:11;;;;;;;;;;;;;;;;;;5072153;28;19908;-52
2021/11/04 08:43:37;;;;;;;;;;;;;;;;;;5068980;28;20307;-52
2021/11/04 08:46:03;;;;;;;;;;;;;;;;;;5082019;28;19908;-51
2021/11/04 08:48:29;;;;;;;;;;;;;;;;;;5082062;28;19908;-50
2021/11/04 08:50:55;;;;;;;;;;;;;;;;;;5087435;28;20290;-49
2021/11/04 08:53:22;;;;;;;;;;;;;;;;;;5086986;28;19908;-51
2021/11/04 08:55:47;;;;;;;;;;;;;;;;;;5086563;28;19950;-49
2021/11/04 08:58:14;;;;;;;;;;;;;;;;;;5086607;28;19951;-51
2021/11/04 09:00:40;;;;;;;;;;;;;;;;;;5087037;28;20554;-51
2021/11/04 09:03:06;;;;;;;;;;;;;;;;;;5085424;28;20034;-47
2021/11/04 09:05:33;;;;;;;;;;;;;;;;;;5072677;28;19908;-52
2021/11/04 09:07:59;;;;;;;;;;;;;;;;;;5066992;28;19916;-52
2021/11/04 09:10:25;;;;;;;;;;;;;;;;;;5065886;28;19916;-50
2021/11/04 09:12:51;;;;;;;;;;;;;;;;;;5066676;28;19908;-50
2021/11/04 09:15:17;;;;;;;;;;;;;;;;;;5066287;28;19915;-49
2021/11/04 09:17:43;;;;;;;;;;;;;;;;;;5070036;28;19990;-51
2021/11/04 09:20:09;;;;;;;;;;;;;;;;;;5066492;28;20005;-48
2021/11/04 09:22:35;;;;;;;;;;;;;;;;;;5066402;28;20300;-51
2021/11/04 09:25:01;;;;;;;;;;;;;;;;;;5085638;28;19911;-51
2021/11/04 09:27:27;;;;;;;;;;;;;;;;;;5066496;28;19969;-51
2021/11/04 09:29:53;;;;;;;;;;;;;;;;;;5082267;28;19915;-51
2021/11/04 09:32:19;;;;;;;;;;;;;;;;;;5086322;28;19919;-53
2021/11/04 09:34:45;;;;;;;;;;;;;;;;;;5086687;28;19904;-52
2021/11/04 09:37:11;;;;;;;;;;;;;;;;;;5072526;28;19912;-49
2021/11/04 09:39:37;;;;;;;;;;;;;;;;;;5065131;28;20412;-51
2021/11/04 09:42:04;;;;;;;;;;;;;;;;;;5065828;28;19908;-51
2021/11/04 09:44:30;;;;;;;;;;;;;;;;;;5067056;28;19912;-50
2021/11/04 09:46:56;;;;;;;;;;;;;;;;;;5066477;28;19912;-52
2021/11/04 09:49:22;;;;;;;;;;;;;;;;;;5067734;28;20001;-51
2021/11/04 09:51:48;;;;;;;;;;;;;;;;;;5072053;28;19904;-51
2021/11/04 09:54:14;;;;;;;;;;;;;;;;;;5090309;28;19911;-50
2021/11/04 09:56:41;;;;;;;;;;;;;;;;;;5091130;28;19904;-53
2021/11/04 09:59:07;;;;;;;;;;;;;;;;;;5090580;28;20422;-50
2021/11/04 10:01:34;;;;;;;;;;;;;;;;;;5090916;28;20044;-52
2021/11/04 10:04:01;;;;;;;;;;;;;;;;;;5090371;28;19950;-50
2021/11/04 10:06:27;;;;;;;;;;;;;;;;;;5089734;28;19908;-52
2021/11/04 10:08:53;;;;;;;;;;;;;;;;;;5089666;28;19995;-50
2021/11/04 10:11:19;;;;;;;;;;;;;;;;;;5082651;28;19916;-51
2021/11/04 10:13:45;;;;;;;;;;;;;;;;;;5069539;28;20286;-52
2021/11/04 10:16:11;;;;;;;;;;;;;;;;;;5070096;28;19958;-52
2021/11/04 10:18:38;;;;;;;;;;;;;;;;;;5069508;28;19943;-50
2021/11/04 10:21:04;;;;;;;;;;;;;;;;;;5070087;28;19999;-52
2021/11/04 10:23:30;;;;;;;;;;;;;;;;;;5075653;28;20000;-49
2021/11/04 10:25:56;;;;;;;;;;;;;;;;;;5090044;28;20234;-52
2021/11/04 10:28:22;;;;;;;;;;;;;;;;;;5076092;28;19977;-51
2021/11/04 10:30:48;;;;;;;;;;;;;;;;;;5069703;28;20354;-48
2021/11/04 10:33:14;;;;;;;;;;;;;;;;;;5068870;28;19912;-52
2021/11/04 10:35:40;;;;;;;;;;;;;;;;;;5069536;28;19904;-53
2021/11/04 10:38:07;;;;;;;;;;;;;;;;;;5079612;28;20398;-49
2021/11/04 10:40:33;;;;;;;;;;;;;;;;;;5086865;28;19935;-51
2021/11/04 10:42:59;;;;;;;;;;;;;;;;;;5085648;28;19975;-50
2021/11/04 10:45:25;;;;;;;;;;;;;;;;;;5089533;28;19911;-52
2021/11/04 10:47:53;;;;;;;;;;;;;;;;;;5080099;28;19916;-51
2021/11/04 10:50:18;;;;;;;;;;;;;;;;;;5086198;28;20018;-52
2021/11/04 10:52:45;;;;;;;;;;;;;;;;;;5089303;28;20019;-52
2021/11/04 10:55:11;;;;;;;;;;;;;;;;;;5089376;28;19908;-50
2021/11/04 10:57:41;;;;;;;;;;;;;;;;;;5084468;28;19961;-49
2021/11/04 11:00:06;;;;;;;;;;;;;;;;;;5067650;28;20307;-49
2021/11/04 11:02:32;;;;;;;;;;;;;;;;;;5087063;28;19908;-49
2021/11/04 11:05:02;;;;;;;;;;;;;;;;;;5083831;28;19919;-51
2021/11/04 11:07:29;;;;;;;;;;;;;;;;;;5068390;28;19905;-50
2021/11/04 11:09:55;;;;;;;;;;;;;;;;;;5087385;28;19919;-49
2021/11/04 11:12:22;;;;;;;;;;;;;;;;;;5072076;28;19912;-51
2021/11/04 11:14:50;;;;;;;;;;;;;;;;;;5068707;28;19993;-52
2021/11/04 11:17:17;;;;;;;;;;;;;;;;;;5068587;28;19998;-50
2021/11/04 11:19:43;;;;;;;;;;;;;;;;;;5068366;28;20336;-49
2021/11/04 11:22:10;;;;;;;;;;;;;;;;;;5080521;28;20019;-52
2021/11/04 11:24:37;;;;;;;;;;;;;;;;;;5072880;28;19936;-49
2021/11/04 11:27:03;;;;;;;;;;;;;;;;;;5074167;28;20345;-50
2021/11/04 11:29:29;;;;;;;;;;;;;;;;;;5086874;28;19939;-50
2021/11/04 11:31:55;;;;;;;;;;;;;;;;;;5087604;28;19939;-48
2021/11/04 11:34:22;;;;;;;;;;;;;;;;;;5087332;28;19911;-50
2021/11/04 11:36:48;;;;;;;;;;;;;;;;;;5087548;28;19936;-48
2021/11/04 11:39:15;;;;;;;;;;;;;;;;;;5079342;28;19951;-49
2021/11/04 11:41:41;;;;;;;;;;;;;;;;;;5079938;28;19913;-49
2021/11/04 11:44:08;;;;;;;;;;;;;;;;;;5073970;28;19908;-48
2021/11/04 11:46:34;;;;;;;;;;;;;;;;;;5087302;28;20403;-50
2021/11/04 11:49:00;;;;;;;;;;;;;;;;;;5087250;28;19936;-51
2021/11/04 11:51:27;;;;;;;;;;;;;;;;;;5073489;28;20608;-51
2021/11/04 11:53:53;;;;;;;;;;;;;;;;;;5067311;28;19916;-51
2021/11/04 11:56:19;;;;;;;;;;;;;;;;;;5067704;28;20669;-52
2021/11/04 11:58:47;;;;;;;;;;;;;;;;;;5068179;28;19939;-52
2021/11/04 12:01:13;;;;;;;;;;;;;;;;;;5068065;28;19911;-52
2021/11/04 12:03:40;;;;;;;;;;;;;;;;;;5068219;28;20306;-52
2021/11/04 12:06:06;;;;;;;;;;;;;;;;;;5068653;28;19977;-50
2021/11/04 12:08:32;;;;;;;;;;;;;;;;;;5068378;28;20405;-51
2021/11/04 12:10:58;;;;;;;;;;;;;;;;;;5069190;28;19955;-49
2021/11/04 12:13:24;;;;;;;;;;;;;;;;;;5067547;28;20368;-49
2021/11/04 12:15:49;;;;;;;;;;;;;;;;;;5067807;28;19954;-50
2021/11/04 12:18:16;;;;;;;;;;;;;;;;;;5067693;28;19908;-51
2021/11/04 12:20:42;;;;;;;;;;;;;;;;;;5067347;28;19911;-51
2021/11/04 12:23:07;;;;;;;;;;;;;;;;;;5067710;28;20295;-47
2021/11/04 12:25:34;;;;;;;;;;;;;;;;;;5075158;28;19912;-51
2021/11/04 12:27:59;;;;;;;;;;;;;;;;;;5084393;28;19912;-49
2021/11/04 12:30:26;;;;;;;;;;;;;;;;;;5087779;28;19904;-49
2021/11/04 12:32:52;;;;;;;;;;;;;;;;;;5087945;28;19994;-50
2021/11/04 12:35:19;;;;;;;;;;;;;;;;;;5086318;28;20059;-51
2021/11/04 12:37:45;;;;;;;;;;;;;;;;;;5086300;28;19994;-50
2021/11/04 12:40:10;;;;;;;;;;;;;;;;;;5086229;28;20387;-51
2021/11/04 12:42:37;;;;;;;;;;;;;;;;;;5085966;28;19915;-48
2021/11/04 12:45:03;;;;;;;;;;;;;;;;;;5071045;28;20426;-50
2021/11/04 12:47:29;;;;;;;;;;;;;;;;;;5065738;28;19908;-51
2021/11/04 12:49:55;;;;;;;;;;;;;;;;;;5065785;28;20005;-50
2021/11/04 12:52:21;;;;;;;;;;;;;;;;;;5065437;28;19908;-48
2021/11/04 12:54:50;;;;;;;;;;;;;;;;;;5066101;28;19908;-50
2021/11/04 12:57:16;;;;;;;;;;;;;;;;;;5065353;28;20383;-51
2021/11/04 12:59:43;;;;;;;;;;;;;;;;;;5065797;28;20196;-48
2021/11/04 13:02:09;;;;;;;;;;;;;;;;;;5065768;28;19915;-49
2021/11/04 13:04:36;;;;;;;;;;;;;;;;;;5066098;28;19904;-51
2021/11/04 13:07:02;;;;;;;;;;;;;;;;;;5066075;28;19905;-50
2021/11/04 13:09:28;;;;;;;;;;;;;;;;;;5065244;28;19935;-48
2021/11/04 13:11:55;;;;;;;;;;;;;;;;;;5065556;28;20395;-49
2021/11/04 13:14:21;;;;;;;;;;;;;;;;;;5065144;28;19908;-52
2021/11/04 13:16:47;;;;;;;;;;;;;;;;;;5065613;28;19982;-52
2021/11/04 13:19:14;;;;;;;;;;;;;;;;;;5065500;28;19905;-51
2021/11/04 13:21:40;;;;;;;;;;;;;;;;;;5064792;28;20331;-52
2021/11/04 13:24:08;;;;;;;;;;;;;;;;;;5065552;28;19947;-51
2021/11/04 13:26:33;;;;;;;;;;;;;;;;;;5065998;28;19931;-51
2021/11/04 13:28:59;;;;;;;;;;;;;;;;;;5065401;28;19908;-52
2021/11/04 13:31:25;;;;;;;;;;;;;;;;;;5065105;28;19905;-48
2021/11/04 13:33:52;;;;;;;;;;;;;;;;;;5065306;28;19931;-52
2021/11/04 13:36:21;;;;;;;;;;;;;;;;;;5064902;28;19909;-51
2021/11/04 13:38:47;;;;;;;;;;;;;;;;;;5065182;28;19953;-51
2021/11/04 13:41:14;;;;;;;;;;;;;;;;;;5065044;28;19904;-49
2021/11/04 13:43:40;;;;;;;;;;;;;;;;;;5064979;28;19909;-52
2021/11/04 13:46:06;;;;;;;;;;;;;;;;;;5064978;28;19912;-48
2021/11/04 13:48:32;;;;;;;;;;;;;;;;;;5065665;28;20923;-49
2021/11/04 13:50:58;;;;;;;;;;;;;;;;;;5064999;28;19952;-48
2021/11/04 13:53:26;;;;;;;;;;;;;;;;;;5064905;28;19912;-51
2021/11/04 13:55:56;;;;;;;;;;;;;;;;;;5064853;28;20033;-50
2021/11/04 13:58:23;;;;;;;;;;;;;;;;;;5065422;28;19927;-51
2021/11/04 14:00:49;;;;;;;;;;;;;;;;;;5065599;28;19912;-53
2021/11/04 14:03:16;;;;;;;;;;;;;;;;;;5063631;28;19908;-50
2021/11/04 14:05:43;;;;;;;;;;;;;;;;;;5064733;28;19943;-51
2021/11/04 14:08:09;;;;;;;;;;;;;;;;;;5065017;28;19919;-52
2021/11/04 14:10:36;;;;;;;;;;;;;;;;;;5065091;28;20015;-51
2021/11/04 14:13:02;;;;;;;;;;;;;;;;;;5065674;28;19908;-51
2021/11/04 14:15:27;;;;;;;;;;;;;;;;;;5064754;28;20346;-52
2021/11/04 14:17:53;;;;;;;;;;;;;;;;;;5064990;28;20291;-50
2021/11/04 14:20:19;;;;;;;;;;;;;;;;;;5064201;28;19908;-50
2021/11/04 14:22:45;;;;;;;;;;;;;;;;;;5064947;28;20357;-50
2021/11/04 14:25:13;;;;;;;;;;;;;;;;;;5064644;28;19904;-50
2021/11/04 14:27:39;;;;;;;;;;;;;;;;;;5064917;28;19904;-52
2021/11/04 14:30:06;;;;;;;;;;;;;;;;;;5065464;28;19990;-53
2021/11/04 14:32:32;;;;;;;;;;;;;;;;;;5064976;28;19908;-50
2021/11/04 14:34:57;;;;;;;;;;;;;;;;;;5082976;28;19957;-52
2021/11/04 14:37:23;;;;;;;;;;;;;;;;;;5088032;28;19940;-51
2021/11/04 14:39:49;;;;;;;;;;;;;;;;;;5067803;28;20314;-52
2021/11/04 14:42:16;;;;;;;;;;;;;;;;;;5067935;28;20046;-52
2021/11/04 14:44:43;;;;;;;;;;;;;;;;;;5068107;28;19908;-51
2021/11/04 14:47:09;;;;;;;;;;;;;;;;;;5068253;28;19969;-48
2021/11/04 14:49:35;;;;;;;;;;;;;;;;;;5067838;28;19908;-49
2021/11/04 14:52:01;;;;;;;;;;;;;;;;;;5068561;28;19915;-50
2021/11/04 14:54:27;;;;;;;;;;;;;;;;;;5067803;28;19916;-50
2021/11/04 14:56:52;;;;;;;;;;;;;;;;;;5067946;28;20284;-50
2021/11/04 14:59:18;;;;;;;;;;;;;;;;;;5067556;28;19909;-52
2021/11/04 15:01:44;;;;;;;;;;;;;;;;;;5067567;28;20008;-51
2021/11/04 15:04:11;;;;;;;;;;;;;;;;;;5067872;28;20368;-50
2021/11/04 15:06:38;;;;;;;;;;;;;;;;;;5067557;28;19908;-50
2021/11/04 15:09:04;;;;;;;;;;;;;;;;;;5067922;28;19911;-50
2021/11/04 15:11:30;;;;;;;;;;;;;;;;;;5068165;28;20134;-52
2021/11/04 15:13:56;;;;;;;;;;;;;;;;;;5067693;28;19958;-52
2021/11/04 15:16:23;;;;;;;;;;;;;;;;;;5067581;28;19905;-48
2021/11/04 15:18:50;;;;;;;;;;;;;;;;;;5067637;28;20007;-51
2021/11/04 15:21:17;;;;;;;;;;;;;;;;;;5066624;28;19908;-50
2021/11/04 15:23:43;;;;;;;;;;;;;;;;;;5067406;28;19905;-49
2021/11/04 15:26:10;;;;;;;;;;;;;;;;;;5066995;28;19909;-48
2021/11/04 15:28:40;;;;;;;;;;;;;;;;;;5067157;28;19954;-51
2021/11/04 15:31:07;;;;;;;;;;;;;;;;;;5067586;28;19947;-51
2021/11/04 15:33:33;;;;;;;;;;;;;;;;;;5067540;28;19920;-51
2021/11/04 15:35:59;;;;;;;;;;;;;;;;;;5066985;28;20023;-50
2021/11/04 15:38:25;;;;;;;;;;;;;;;;;;5066906;28;19947;-50
2021/11/04 15:40:51;;;;;;;;;;;;;;;;;;5067320;28;19969;-51
2021/11/04 15:43:17;;;;;;;;;;;;;;;;;;5067122;28;19908;-49
2021/11/04 15:45:43;;;;;;;;;;;;;;;;;;5066933;28;20276;-48
2021/11/04 15:48:08;;;;;;;;;;;;;;;;;;5066782;28;19904;-48
2021/11/04 15:50:34;;;;;;;;;;;;;;;;;;5066463;28;20422;-47
2021/11/04 15:53:00;;;;;;;;;;;;;;;;;;5067327;28;19961;-47
2021/11/04 15:55:26;;;;;;;;;;;;;;;;;;5067002;28;19908;-49
2021/11/04 15:57:52;;;;;;;;;;;;;;;;;;5065414;28;19912;-48
2021/11/04 16:00:19;;;;;;;;;;;;;;;;;;5066684;28;20394;-49
2021/11/04 16:02:45;;;;;;;;;;;;;;;;;;5066670;28;20397;-49
2021/11/04 16:05:12;;;;;;;;;;;;;;;;;;5066318;28;19904;-51
2021/11/04 16:07:39;;;;;;;;;;;;;;;;;;5066398;28;20375;-51
2021/11/04 16:10:05;;;;;;;;;;;;;;;;;;5066670;28;19916;-48
2021/11/04 16:12:30;;;;;;;;;;;;;;;;;;5066796;28;20150;-48
2021/11/04 16:14:57;;;;;;;;;;;;;;;;;;5065379;28;19908;-51
2021/11/04 16:17:23;;;;;;;;;;;;;;;;;;5070740;28;20012;-49
2021/11/04 16:19:49;;;;;;;;;;;;;;;;;;5078807;28;19998;-52
2021/11/04 16:22:15;;;;;;;;;;;;;;;;;;5087231;28;19995;-51
2021/11/04 16:24:41;;;;;;;;;;;;;;;;;;5067672;28;19905;-51
2021/11/04 16:27:07;;;;;;;;;;;;;;;;;;5067786;28;19944;-50
2021/11/04 16:29:33;;;;;;;;;;;;;;;;;;5068083;28;19915;-50
2021/11/04 16:31:59;;;;;;;;;;;;;;;;;;5066454;28;19909;-50
2021/11/04 16:34:26;;;;;;;;;;;;;;;;;;5065420;28;19916;-53
2021/11/04 16:36:53;;;;;;;;;;;;;;;;;;5066102;28;19904;-53
2021/11/04 16:39:20;;;;;;;;;;;;;;;;;;5065610;28;19927;-51